Time;durP1;ratioP1;P1;durP2;ratioP2;P2;SDS_P1;SDS_P2;PMS_P1;PMS_P2;Temp;Humidity;BMP_temperature;BMP_pressure;BME280_temperature;BME280_humidity;BME280_pressure;Samples;Min_cycle;Max_cycle;Signal;HPM_P1;HPM_P2
2021/08/10 00:02:11;;;;;;;;;;;;;;;24.65;55.36;100882.38;5054068;28;1601;-61
2021/08/10 00:04:38;;;;;;;;;;;;;;;24.52;55.29;100877.47;5055498;28;1337;-62
2021/08/10 00:07:04;;;;;;;;;;;;;;;24.38;55.48;100880.81;5055046;28;1583;-62
2021/08/10 00:09:31;;;;;;;;;;;;;;;24.40;55.34;100878.78;5054968;28;1413;-61
2021/08/10 00:11:59;;;;;;;;;;;;;;;24.44;55.31;100895.53;5055037;28;1972;-62
2021/08/10 00:14:26;;;;;;;;;;;;;;;24.44;55.39;100884.72;5055441;28;1588;-60
2021/08/10 00:16:53;;;;;;;;;;;;;;;24.43;55.01;100891.94;5055459;28;1620;-63
2021/08/10 00:19:19;;;;;;;;;;;;;;;24.31;56.02;100883.34;5055600;28;1400;-62
2021/08/10 00:21:46;;;;;;;;;;;;;;;24.29;55.55;100879.09;5054764;28;1515;-61
2021/08/10 00:24:12;;;;;;;;;;;;;;;24.39;55.24;100868.97;5054901;28;1345;-62
2021/08/10 00:26:39;;;;;;;;;;;;;;;24.52;54.55;100892.84;5054781;28;1572;-63
2021/08/10 00:29:07;;;;;;;;;;;;;;;24.50;54.56;100890.31;5055198;28;1624;-63
2021/08/10 00:31:34;;;;;;;;;;;;;;;24.37;55.58;100874.56;5055446;28;1975;-61
2021/08/10 00:34:00;;;;;;;;;;;;;;;24.42;55.59;100874.06;5053115;28;1547;-63
2021/08/10 00:36:27;;;;;;;;;;;;;;;24.40;55.66;100879.63;5054504;28;1476;-63
2021/08/10 00:38:53;;;;;;;;;;;;;;;24.35;55.38;100892.81;5054459;28;1420;-62
2021/08/10 00:41:20;;;;;;;;;;;;;;;24.31;55.67;100882.50;5055037;28;1103;-62
2021/08/10 00:43:47;;;;;;;;;;;;;;;24.37;55.43;100887.22;5054691;28;1683;-60
2021/08/10 00:46:16;;;;;;;;;;;;;;;24.45;55.10;100873.69;5054952;28;1573;-60
2021/08/10 00:48:43;;;;;;;;;;;;;;;24.49;55.48;100891.31;5054256;28;1283;-62
2021/08/10 00:51:11;;;;;;;;;;;;;;;24.47;55.48;100898.75;5054454;28;1909;-62
2021/08/10 00:53:38;;;;;;;;;;;;;;;24.44;56.05;100885.53;5053449;28;1496;-61
2021/08/10 00:56:05;;;;;;;;;;;;;;;24.47;55.54;100885.22;5054017;28;1480;-62
2021/08/10 00:58:32;;;;;;;;;;;;;;;24.45;55.38;100898.03;5053819;28;1420;-62
2021/08/10 01:00:59;;;;;;;;;;;;;;;24.40;55.66;100887.72;5053991;28;1384;-62
2021/08/10 01:03:27;;;;;;;;;;;;;;;24.43;55.66;100891.94;5052608;28;1775;-61
2021/08/10 01:05:53;;;;;;;;;;;;;;;24.44;55.91;100901.75;5055114;28;1019;-63
2021/08/10 01:08:24;;;;;;;;;;;;;;;24.38;55.49;100897.88;5053897;28;1507;-62
2021/08/10 01:10:56;;;;;;;;;;;;;;;24.37;55.55;100900.72;5054056;28;1449;-62
2021/08/10 01:13:25;;;;;;;;;;;;;;;24.25;55.71;100904.78;5049876;28;1778;-61
2021/08/10 01:15:56;;;;;;;;;;;;;;;24.36;55.60;100894.50;5053719;28;1572;-62
2021/08/10 01:18:26;;;;;;;;;;;;;;;24.40;55.92;100905.81;5054326;28;1619;-61
2021/08/10 01:21:08;;;;;;;;;;;;;;;24.36;55.77;100899.06;5054940;28;981;-61
2021/08/10 01:23:35;;;;;;;;;;;;;;;24.33;55.69;100902.09;5054288;28;1389;-62
2021/08/10 01:26:05;;;;;;;;;;;;;;;24.22;55.56;100914.06;5053902;28;1448;-61
2021/08/10 01:28:45;;;;;;;;;;;;;;;24.22;55.33;100901.41;5053408;28;1727;-62
2021/08/10 01:31:26;;;;;;;;;;;;;;;24.31;56.02;100902.28;5051401;28;1906;-63
2021/08/10 01:33:56;;;;;;;;;;;;;;;24.31;55.61;100899.56;5051398;28;1810;-62
2021/08/10 01:36:24;;;;;;;;;;;;;;;24.27;55.71;100900.06;5053701;28;1292;-62
2021/08/10 01:38:56;;;;;;;;;;;;;;;24.27;55.06;100900.06;5053878;28;1400;-61
2021/08/10 01:41:23;;;;;;;;;;;;;;;24.32;55.69;100903.94;5053813;28;1381;-61
2021/08/10 01:43:50;;;;;;;;;;;;;;;24.40;55.17;100911.22;5053446;28;1695;-61
2021/08/10 01:46:17;;;;;;;;;;;;;;;24.34;55.48;100909.19;5053837;28;1543;-60
2021/08/10 01:48:46;;;;;;;;;;;;;;;24.34;55.66;100912.72;5053705;28;1730;-62
2021/08/10 01:51:12;;;;;;;;;;;;;;;24.22;56.45;100919.47;5053498;28;1910;-62
2021/08/10 01:53:40;;;;;;;;;;;;;;;24.24;55.94;100911.22;5054453;28;934;-62
2021/08/10 01:56:07;;;;;;;;;;;;;;;24.14;56.24;100908.66;5053493;28;1563;-62
2021/08/10 01:58:36;;;;;;;;;;;;;;;23.92;56.17;100907.44;5053574;28;1746;-63
2021/08/10 02:01:03;;;;;;;;;;;;;;;23.96;56.25;100916.88;5050974;28;1759;-61
2021/08/10 02:03:30;;;;;;;;;;;;;;;24.07;55.87;100916.56;5052349;28;1620;-61
2021/08/10 02:05:59;;;;;;;;;;;;;;;24.13;55.89;100915.94;5058301;28;1337;-61
2021/08/10 02:08:26;;;;;;;;;;;;;;;24.20;55.20;100925.03;5057700;28;1762;-63
2021/08/10 02:10:54;;;;;;;;;;;;;;;24.04;55.85;100916.91;5056942;28;1464;-61
2021/08/10 02:13:20;;;;;;;;;;;;;;;24.02;55.57;100918.94;5057219;28;1901;-62
2021/08/10 02:15:49;;;;;;;;;;;;;;;24.11;55.49;100923.31;5057321;28;1592;-61
2021/08/10 02:18:15;;;;;;;;;;;;;;;24.07;56.11;100911.16;5057573;28;1654;-63
2021/08/10 02:20:43;;;;;;;;;;;;;;;24.04;55.87;100906.09;5057960;28;1334;-61
2021/08/10 02:23:13;;;;;;;;;;;;;;;24.05;55.57;100923.16;5057272;28;1556;-62
2021/08/10 02:25:40;;;;;;;;;;;;;;;24.08;55.85;100929.06;5052941;28;1716;-62
2021/08/10 02:28:08;;;;;;;;;;;;;;;24.09;55.31;100925.34;5057385;28;1568;-61
2021/08/10 02:30:37;;;;;;;;;;;;;;;24.18;55.39;100921.66;5057152;28;1548;-63
2021/08/10 02:33:05;;;;;;;;;;;;;;;24.11;55.93;100917.91;5056942;28;1910;-61
2021/08/10 02:35:32;;;;;;;;;;;;;;;24.04;56.05;100918.78;5057818;28;1969;-63
2021/08/10 02:38:01;;;;;;;;;;;;;;;23.99;55.77;100925.53;5056925;28;1629;-62
2021/08/10 02:40:29;;;;;;;;;;;;;;;24.08;55.75;100912.88;5057209;28;1632;-61
2021/08/10 02:42:57;;;;;;;;;;;;;;;24.04;56.59;100933.13;5056928;28;1620;-61
2021/08/10 02:45:23;;;;;;;;;;;;;;;23.99;56.08;100912.00;5056683;28;1564;-62
2021/08/10 02:47:50;;;;;;;;;;;;;;;23.99;56.38;100919.25;5056799;28;1623;-63
2021/08/10 02:50:17;;;;;;;;;;;;;;;23.94;56.20;100929.72;5057819;28;1064;-63
2021/08/10 02:52:44;;;;;;;;;;;;;;;23.89;56.09;100927.50;5055303;28;1973;-62
2021/08/10 02:55:11;;;;;;;;;;;;;;;23.86;55.97;100945.91;5056786;28;1873;-61
2021/08/10 02:57:45;;;;;;;;;;;;;;;23.89;56.61;100941.00;5053344;28;1404;-61
2021/08/10 03:00:14;;;;;;;;;;;;;;;23.95;55.83;100939.50;5056314;28;1383;-63
2021/08/10 03:02:42;;;;;;;;;;;;;;;24.07;55.96;100951.69;5054753;28;1478;-63
2021/08/10 03:05:12;;;;;;;;;;;;;;;23.98;56.46;100956.22;5057272;28;1008;-61
2021/08/10 03:07:41;;;;;;;;;;;;;;;23.98;55.84;100950.81;5056411;28;1771;-62
2021/08/10 03:10:08;;;;;;;;;;;;;;;23.97;56.38;100970.75;5056124;28;1155;-63
2021/08/10 03:12:37;;;;;;;;;;;;;;;24.04;56.39;100962.84;5053305;28;1913;-61
2021/08/10 03:15:05;;;;;;;;;;;;;;;23.91;56.51;100959.75;5048065;28;1473;-61
2021/08/10 03:17:34;;;;;;;;;;;;;;;23.97;56.30;100953.69;5055865;28;1504;-61
2021/08/10 03:20:02;;;;;;;;;;;;;;;24.04;55.87;100964.69;5056715;28;1237;-61
2021/08/10 03:22:29;;;;;;;;;;;;;;;23.96;56.20;100973.63;5055917;28;1406;-61
2021/08/10 03:24:57;;;;;;;;;;;;;;;23.93;56.57;100969.38;5055966;28;1418;-60
2021/08/10 03:27:25;;;;;;;;;;;;;;;23.86;56.52;100976.44;5055869;28;1421;-61
2021/08/10 03:29:53;;;;;;;;;;;;;;;23.82;56.71;100962.41;5056198;28;1569;-61
2021/08/10 03:32:22;;;;;;;;;;;;;;;23.88;56.19;100968.19;5056081;28;1981;-60
2021/08/10 03:34:49;;;;;;;;;;;;;;;23.96;56.14;100968.22;5056658;28;1178;-63
2021/08/10 03:37:17;;;;;;;;;;;;;;;23.97;56.19;100964.50;5051198;28;1528;-62
2021/08/10 03:39:44;;;;;;;;;;;;;;;24.05;55.91;100974.47;5055803;28;1241;-60
2021/08/10 03:42:11;;;;;;;;;;;;;;;23.95;56.55;100971.91;5055583;28;1437;-61
2021/08/10 03:44:42;;;;;;;;;;;;;;;23.93;56.72;100969.38;5055712;28;1429;-61
2021/08/10 03:47:09;;;;;;;;;;;;;;;24.02;56.35;100978.34;5051660;28;1382;-62
2021/08/10 03:49:37;;;;;;;;;;;;;;;23.96;56.40;100990.66;5055721;28;1359;-63
2021/08/10 03:52:04;;;;;;;;;;;;;;;24.03;56.28;100985.44;5055711;28;1989;-62
2021/08/10 03:54:31;;;;;;;;;;;;;;;24.13;56.26;100991.59;5054317;28;1968;-63
2021/08/10 03:56:58;;;;;;;;;;;;;;;23.96;56.64;100981.72;5054748;28;1361;-63
2021/08/10 03:59:25;;;;;;;;;;;;;;;23.91;57.23;100984.06;5055329;28;1394;-63
2021/08/10 04:01:53;;;;;;;;;;;;;;;24.11;56.92;100971.94;5054171;28;1466;-62
2021/08/10 04:04:21;;;;;;;;;;;;;;;24.18;56.81;100972.16;5053091;28;1429;-61
2021/08/10 04:06:49;;;;;;;;;;;;;;;24.23;56.92;100977.91;5055238;28;1222;-61
2021/08/10 04:09:16;;;;;;;;;;;;;;;24.29;57.10;100973.69;5055534;28;1631;-63
2021/08/10 04:11:43;;;;;;;;;;;;;;;24.32;56.11;100965.28;5053338;28;1392;-60
2021/08/10 04:14:10;;;;;;;;;;;;;;;24.33;56.92;100969.66;5054938;28;1967;-63
2021/08/10 04:16:45;;;;;;;;;;;;;;;24.42;56.33;100968.66;5054417;28;1564;-61
2021/08/10 04:19:13;;;;;;;;;;;;;;;24.47;56.94;100969.03;5055581;28;1572;-61
2021/08/10 04:21:40;;;;;;;;;;;;;;;24.41;56.13;100978.63;5054612;28;1456;-60
2021/08/10 04:24:08;;;;;;;;;;;;;;;24.37;56.31;100979.13;5054680;28;1548;-60
2021/08/10 04:26:36;;;;;;;;;;;;;;;24.36;56.60;100977.44;5055017;28;1643;-63
2021/08/10 04:29:02;;;;;;;;;;;;;;;24.41;56.88;100988.59;5054728;28;1400;-63
2021/08/10 04:31:29;;;;;;;;;;;;;;;24.61;57.66;100990.03;5053956;28;1739;-70
2021/08/10 04:33:56;;;;;;;;;;;;;;;24.64;56.61;100980.72;5053344;28;1910;-63
2021/08/10 04:36:22;;;;;;;;;;;;;;;24.55;57.11;100982.56;5054035;28;1547;-63
2021/08/10 04:38:49;;;;;;;;;;;;;;;24.64;56.37;100993.41;5053999;28;1670;-61
2021/08/10 04:41:17;;;;;;;;;;;;;;;24.67;57.16;100987.63;5055160;28;1397;-61
2021/08/10 04:43:43;;;;;;;;;;;;;;;24.83;56.63;100993.09;5054411;28;1704;-61
2021/08/10 04:46:10;;;;;;;;;;;;;;;24.83;57.09;101008.44;5054732;28;1715;-63
2021/08/10 04:48:36;;;;;;;;;;;;;;;24.87;57.19;100994.44;5054545;28;1372;-62
2021/08/10 04:51:03;;;;;;;;;;;;;;;24.92;57.37;100992.03;5055435;28;1140;-62
2021/08/10 04:53:30;;;;;;;;;;;;;;;24.95;57.87;100980.91;5054214;28;1906;-61
2021/08/10 04:55:56;;;;;;;;;;;;;;;25.01;57.31;100990.22;5054386;28;1504;-61
2021/08/10 04:58:24;;;;;;;;;;;;;;;25.06;56.98;100992.38;5054730;28;1758;-63
2021/08/10 05:00:51;;;;;;;;;;;;;;;25.10;58.10;100999.16;5054366;28;1572;-61
2021/08/10 05:03:17;;;;;;;;;;;;;;;25.10;57.58;100988.31;5052789;28;1660;-61
2021/08/10 05:05:44;;;;;;;;;;;;;;;25.07;56.67;100972.41;5054851;28;1035;-61
2021/08/10 05:08:10;;;;;;;;;;;;;;;25.06;57.08;100990.53;5054301;28;1559;-63
2021/08/10 05:10:37;;;;;;;;;;;;;;;25.06;56.99;100982.41;5054578;28;1576;-63
2021/08/10 05:13:03;;;;;;;;;;;;;;;25.25;56.36;100986.66;5054184;28;1985;-61
2021/08/10 05:15:31;;;;;;;;;;;;;;;25.17;56.94;101008.28;5054456;28;1564;-63
2021/08/10 05:17:58;;;;;;;;;;;;;;;25.17;57.52;100992.06;5054261;28;1580;-61
2021/08/10 05:20:24;;;;;;;;;;;;;;;25.27;57.23;100995.44;5055033;28;982;-63
2021/08/10 05:22:51;;;;;;;;;;;;;;;25.28;57.39;101007.94;5054364;28;1707;-61
2021/08/10 05:25:18;;;;;;;;;;;;;;;25.39;57.94;101021.13;5052821;28;1488;-61
2021/08/10 05:27:44;;;;;;;;;;;;;;;25.34;57.55;101001.84;5054217;28;1564;-63
2021/08/10 05:30:11;;;;;;;;;;;;;;;25.35;57.99;101011.66;5053694;28;1406;-61
2021/08/10 05:32:40;;;;;;;;;;;;;;;25.34;58.07;101017.25;5054044;28;1982;-61
2021/08/10 05:35:07;;;;;;;;;;;;;;;25.38;58.16;101016.72;5054803;28;977;-63
2021/08/10 05:37:34;;;;;;;;;;;;;;;25.40;57.77;101006.56;5053733;28;1511;-71
2021/08/10 05:40:01;;;;;;;;;;;;;;;25.38;58.87;101005.91;5053470;28;1635;-62
2021/08/10 05:42:28;;;;;;;;;;;;;;;25.43;58.50;101005.41;5054505;28;1024;-62
2021/08/10 05:44:54;;;;;;;;;;;;;;;25.42;58.19;101000.16;5053096;28;1437;-62
2021/08/10 05:47:21;;;;;;;;;;;;;;;25.45;59.05;100997.94;5053168;28;1540;-64
2021/08/10 05:49:49;;;;;;;;;;;;;;;25.48;58.98;101000.28;5053792;28;1576;-63
2021/08/10 05:52:16;;;;;;;;;;;;;;;25.56;59.07;100999.44;5053290;28;1337;-61
2021/08/10 05:54:42;;;;;;;;;;;;;;;25.55;58.62;100995.06;5053145;28;1902;-62
2021/08/10 05:57:09;;;;;;;;;;;;;;;25.58;58.53;100992.81;5053638;28;1460;-62
2021/08/10 05:59:35;;;;;;;;;;;;;;;25.66;58.14;100996.53;5053523;28;1575;-62
2021/08/10 06:02:03;;;;;;;;;;;;;;;25.70;58.93;101012.25;5050998;28;1476;-62
2021/08/10 06:04:30;;;;;;;;;;;;;;;25.78;58.38;101022.22;5051467;28;1703;-61
2021/08/10 06:06:59;;;;;;;;;;;;;;;25.82;59.02;101018.13;5053637;28;1528;-61
2021/08/10 06:09:25;;;;;;;;;;;;;;;25.87;58.54;101025.75;5053792;28;1698;-61
2021/08/10 06:11:52;;;;;;;;;;;;;;;25.90;59.47;101038.94;5053255;28;1396;-61
2021/08/10 06:14:19;;;;;;;;;;;;;;;25.87;61.61;101028.47;5053181;28;1902;-61
2021/08/10 06:16:45;;;;;;;;;;;;;;;25.87;62.86;101025.75;5054022;28;1439;-61
2021/08/10 06:19:12;;;;;;;;;;;;;;;25.90;62.76;101007.31;5053963;28;1616;-61
2021/08/10 06:21:39;;;;;;;;;;;;;;;25.92;62.79;101021.50;5053731;28;1763;-62
2021/08/10 06:24:07;;;;;;;;;;;;;;;25.90;62.72;101006.44;5053455;28;1612;-60
2021/08/10 06:26:33;;;;;;;;;;;;;;;25.99;62.42;101002.72;5053438;28;1713;-61
2021/08/10 06:29:00;;;;;;;;;;;;;;;25.96;63.03;100986.78;5053726;28;1346;-62
2021/08/10 06:31:26;;;;;;;;;;;;;;;26.02;62.28;100986.09;5052999;28;1763;-61
2021/08/10 06:33:53;;;;;;;;;;;;;;;26.00;64.01;101007.09;5053198;28;1906;-62
2021/08/10 06:36:19;;;;;;;;;;;;;;;25.95;63.82;100996.78;5052734;28;1587;-61
2021/08/10 06:38:46;;;;;;;;;;;;;;;25.88;64.23;101008.47;5053759;28;1779;-61
2021/08/10 06:41:14;;;;;;;;;;;;;;;25.09;63.35;101006.44;5044169;28;1699;-62
2021/08/10 06:43:40;;;;;;;;;;;;;;;24.50;62.55;101016.50;5050632;28;1323;-61
2021/08/10 06:46:07;;;;;;;;;;;;;;;24.11;62.01;101009.78;5051526;28;1516;-61
2021/08/10 06:48:34;;;;;;;;;;;;;;;24.01;61.24;101003.66;5052238;28;1420;-61
2021/08/10 06:51:01;;;;;;;;;;;;;;;23.97;60.48;101022.09;5055309;28;977;-61
2021/08/10 06:53:28;;;;;;;;;;;;;;;24.03;60.42;100998.94;5056543;28;1977;-61
2021/08/10 06:55:54;;;;;;;;;;;;;;;24.08;59.82;101004.72;5056645;28;1786;-61
2021/08/10 06:58:22;;;;;;;;;;;;;;;24.08;60.72;101009.28;5052006;28;1673;-61
2021/08/10 07:00:48;;;;;;;;;;;;;;;24.10;60.90;101016.22;5055797;28;1433;-62
2021/08/10 07:03:15;;;;;;;;;;;;;;;23.99;60.89;101005.69;5054890;28;1597;-62
2021/08/10 07:05:42;;;;;;;;;;;;;;;24.04;60.75;100997.94;5056565;28;1389;-60
2021/08/10 07:08:08;;;;;;;;;;;;;;;24.02;60.73;101006.22;5055487;28;1508;-61
2021/08/10 07:10:35;;;;;;;;;;;;;;;24.08;60.06;101003.88;5055939;28;1460;-61
2021/08/10 07:13:01;;;;;;;;;;;;;;;24.03;60.12;100996.25;5056501;28;1981;-61
2021/08/10 07:15:29;;;;;;;;;;;;;;;23.96;60.65;101006.88;5055330;28;1443;-62
2021/08/10 07:17:56;;;;;;;;;;;;;;;23.97;60.32;101003.19;5055377;28;1517;-61
2021/08/10 07:20:22;;;;;;;;;;;;;;;23.99;60.02;100990.34;5056302;28;1776;-61
2021/08/10 07:22:49;;;;;;;;;;;;;;;23.95;59.93;100980.00;5056433;28;1719;-62
2021/08/10 07:25:15;;;;;;;;;;;;;;;23.93;59.94;100984.72;5054514;28;1298;-60
2021/08/10 07:27:42;;;;;;;;;;;;;;;23.92;60.50;100985.75;5050651;28;1362;-62
2021/08/10 07:30:09;;;;;;;;;;;;;;;23.88;60.32;100992.50;5055269;28;1511;-60
2021/08/10 07:32:37;;;;;;;;;;;;;;;23.91;60.35;100992.16;5046916;28;1572;-61
2021/08/10 07:35:04;;;;;;;;;;;;;;;23.93;59.74;100977.47;5055818;28;1922;-63
2021/08/10 07:37:30;;;;;;;;;;;;;;;23.87;60.02;100975.41;5055649;28;1762;-62
2021/08/10 07:39:57;;;;;;;;;;;;;;;23.87;59.93;100977.28;5050146;28;1408;-62
2021/08/10 07:42:24;;;;;;;;;;;;;;;23.88;59.77;100976.28;5055238;28;1404;-62
2021/08/10 07:44:51;;;;;;;;;;;;;;;23.82;60.05;100992.13;5055318;28;1511;-63
2021/08/10 07:47:17;;;;;;;;;;;;;;;23.82;59.91;100967.81;5055230;28;1412;-61
2021/08/10 07:49:45;;;;;;;;;;;;;;;23.73;59.79;100967.91;5055403;28;1400;-62
2021/08/10 07:52:11;;;;;;;;;;;;;;;23.80;59.84;100961.72;5052265;28;1546;-62
2021/08/10 07:54:38;;;;;;;;;;;;;;;23.76;60.08;100956.78;5053269;28;1906;-62
2021/08/10 07:57:05;;;;;;;;;;;;;;;23.78;59.82;100971.00;5055659;28;1369;-60
2021/08/10 07:59:31;;;;;;;;;;;;;;;23.75;59.83;100955.94;5055034;28;1435;-63
2021/08/10 08:01:58;;;;;;;;;;;;;;;23.79;59.57;100949.22;5055189;28;1432;-63
2021/08/10 08:04:24;;;;;;;;;;;;;;;23.75;59.84;100955.09;5053602;28;1684;-62
2021/08/10 08:06:52;;;;;;;;;;;;;;;23.76;59.87;100959.50;5055639;28;1628;-63
2021/08/10 08:09:25;;;;;;;;;;;;;;;23.76;59.54;100957.63;5055516;28;1580;-63
2021/08/10 08:11:51;;;;;;;;;;;;;;;23.80;59.79;100948.22;5055274;28;1580;-63
2021/08/10 08:14:20;;;;;;;;;;;;;;;23.76;60.06;100944.13;5054290;28;1902;-62
2021/08/10 08:16:47;;;;;;;;;;;;;;;23.74;60.11;100942.63;5054350;28;1452;-62
2021/08/10 08:19:13;;;;;;;;;;;;;;;23.71;59.99;100932.97;5051641;28;1320;-60
2021/08/10 08:21:40;;;;;;;;;;;;;;;23.69;60.00;100948.47;5054429;28;1794;-63
2021/08/10 08:24:08;;;;;;;;;;;;;;;23.68;60.04;100937.88;5054811;28;1531;-64
2021/08/10 08:26:35;;;;;;;;;;;;;;;23.70;59.67;100950.19;5054492;28;1364;-63
2021/08/10 08:29:01;;;;;;;;;;;;;;;23.74;59.95;100935.34;5054658;28;1337;-62
2021/08/10 08:31:28;;;;;;;;;;;;;;;23.73;59.73;100947.16;5054796;28;1695;-60
2021/08/10 08:33:55;;;;;;;;;;;;;;;23.76;59.84;100937.91;5051712;28;1906;-60
2021/08/10 08:36:21;;;;;;;;;;;;;;;23.75;59.58;100955.94;5046256;28;1501;-61
2021/08/10 08:38:48;;;;;;;;;;;;;;;23.61;59.91;100935.78;5055125;28;1540;-60
2021/08/10 08:41:16;;;;;;;;;;;;;;;23.65;59.45;100928.22;5054957;28;1767;-65
2021/08/10 08:43:42;;;;;;;;;;;;;;;23.62;59.80;100944.75;5054007;28;1527;-60
2021/08/10 08:46:09;;;;;;;;;;;;;;;23.61;59.59;100946.59;5054294;28;1774;-61
2021/08/10 08:48:36;;;;;;;;;;;;;;;23.58;59.37;100952.31;5046575;28;1208;-60
2021/08/10 08:51:05;;;;;;;;;;;;;;;23.60;59.71;100954.88;5051285;28;1492;-66
2021/08/10 08:53:32;;;;;;;;;;;;;;;23.60;59.73;100934.09;5054024;28;1909;-60
2021/08/10 08:55:59;;;;;;;;;;;;;;;23.66;59.42;100943.41;5053573;28;1362;-60
2021/08/10 08:58:27;;;;;;;;;;;;;;;23.52;59.31;100942.19;5053711;28;1437;-64
2021/08/10 09:00:53;;;;;;;;;;;;;;;23.46;59.95;100929.31;5054212;28;1651;-65
2021/08/10 09:03:19;;;;;;;;;;;;;;;23.49;59.71;100942.47;5052917;28;1456;-65
2021/08/10 09:05:47;;;;;;;;;;;;;;;23.46;59.33;100939.25;5055063;28;1277;-65
2021/08/10 09:08:27;;;;;;;;;;;;;;;23.46;59.64;100928.44;5053393;28;1484;-66
2021/08/10 09:10:54;;;;;;;;;;;;;;;23.61;59.53;100940.34;5053853;28;1778;-60
2021/08/10 09:13:21;;;;;;;;;;;;;;;23.53;59.67;100924.13;5053379;28;1641;-59
2021/08/10 09:15:49;;;;;;;;;;;;;;;23.48;59.91;100929.16;5054100;28;1969;-60
2021/08/10 09:18:17;;;;;;;;;;;;;;;23.55;60.27;100922.09;5053864;28;1576;-64
2021/08/10 09:20:58;;;;;;;;;;;;;;;23.71;59.94;100932.97;5055182;28;1056;-65
2021/08/10 09:23:36;;;;;;;;;;;;;;;23.74;59.55;100910.22;5053906;28;1743;-63
2021/08/10 09:26:02;;;;;;;;;;;;;;;23.90;59.44;100907.59;5051176;28;1354;-62
2021/08/10 09:28:32;;;;;;;;;;;;;;;23.92;58.95;100907.44;5053835;28;1644;-60
2021/08/10 09:31:28;;;;;;;;;;;;;;;23.94;59.40;100927.84;5051915;28;1691;-62
2021/08/10 09:33:55;;;;;;;;;;;;;;;23.93;58.82;100920.75;5052767;28;1914;-59
2021/08/10 09:36:22;;;;;;;;;;;;;;;23.86;59.41;100914.31;5053688;28;1559;-62
2021/08/10 09:38:50;;;;;;;;;;;;;;;23.91;59.42;100911.13;5049811;28;1076;-62
2021/08/10 09:41:16;;;;;;;;;;;;;;;23.93;60.04;100914.50;5053858;28;1512;-60
2021/08/10 09:43:43;;;;;;;;;;;;;;;23.97;60.24;100918.56;5052884;28;1496;-60
2021/08/10 09:46:13;;;;;;;;;;;;;;;24.01;60.35;100909.13;5051856;28;1527;-60
2021/08/10 09:48:41;;;;;;;;;;;;;;;24.02;60.77;100900.84;5048240;28;1419;-62
2021/08/10 09:51:09;;;;;;;;;;;;;;;24.08;61.26;100906.63;5053641;28;1406;-60
2021/08/10 09:53:35;;;;;;;;;;;;;;;24.16;61.13;100906.63;5053716;28;1024;-62
2021/08/10 09:56:02;;;;;;;;;;;;;;;24.20;61.87;100916.94;5053663;28;1914;-60
2021/08/10 09:58:29;;;;;;;;;;;;;;;24.15;62.02;100897.69;5048700;28;1574;-62
2021/08/10 10:01:00;;;;;;;;;;;;;;;24.32;62.35;100911.22;5053166;28;1370;-60
2021/08/10 10:03:29;;;;;;;;;;;;;;;24.47;61.75;100897.88;5050785;28;1502;-58
2021/08/10 10:05:56;;;;;;;;;;;;;;;24.54;61.35;100910.56;5054015;28;1211;-62
2021/08/10 10:08:23;;;;;;;;;;;;;;;24.50;61.68;100911.94;5049664;28;1503;-58
2021/08/10 10:10:51;;;;;;;;;;;;;;;24.36;61.27;100894.50;5052179;28;1476;-59
2021/08/10 10:13:18;;;;;;;;;;;;;;;24.36;60.98;100899.91;5052452;28;1467;-59
2021/08/10 10:15:46;;;;;;;;;;;;;;;24.27;60.70;100890.06;5050952;28;1910;-62
2021/08/10 10:18:13;;;;;;;;;;;;;;;24.19;60.70;100890.94;5052794;28;1369;-62
2021/08/10 10:20:42;;;;;;;;;;;;;;;24.02;61.11;100895.47;5053948;28;1384;-62
2021/08/10 10:23:09;;;;;;;;;;;;;;;23.92;60.35;100886.66;5049811;28;1573;-60
2021/08/10 10:25:36;;;;;;;;;;;;;;;23.93;60.75;100892.91;5054261;28;1439;-61
2021/08/10 10:28:03;;;;;;;;;;;;;;;23.89;60.45;100894.25;5056695;28;1514;-60
2021/08/10 10:30:30;;;;;;;;;;;;;;;23.84;60.11;100885.81;5056331;28;1559;-62
2021/08/10 10:32:58;;;;;;;;;;;;;;;23.81;60.17;100889.66;5056476;28;1377;-62
2021/08/10 10:35:25;;;;;;;;;;;;;;;23.87;59.68;100866.56;5058006;28;1980;-60
2021/08/10 10:37:54;;;;;;;;;;;;;;;23.78;59.62;100885.44;5057140;28;1703;-61
2021/08/10 10:40:21;;;;;;;;;;;;;;;23.70;59.88;100877.28;5050838;28;1516;-60
2021/08/10 10:42:49;;;;;;;;;;;;;;;23.63;59.92;100884.34;5056694;28;1575;-60
2021/08/10 10:45:32;;;;;;;;;;;;;;;23.60;59.95;100872.03;5051445;28;1535;-63
2021/08/10 10:47:59;;;;;;;;;;;;;;;23.57;60.01;100864.22;5056259;28;1568;-59
2021/08/10 10:50:25;;;;;;;;;;;;;;;23.65;59.74;100863.41;5055943;28;1412;-59
2021/08/10 10:53:01;;;;;;;;;;;;;;;23.64;59.80;100875.25;5056357;28;1616;-60
2021/08/10 10:55:34;;;;;;;;;;;;;;;23.68;60.28;100873.06;5056223;28;1973;-63
2021/08/10 10:58:00;;;;;;;;;;;;;;;23.72;60.44;100869.88;5056832;28;1372;-60
2021/08/10 11:00:29;;;;;;;;;;;;;;;23.71;60.71;100873.56;5055721;28;1376;-60
2021/08/10 11:03:12;;;;;;;;;;;;;;;23.63;61.22;100878.94;5054845;28;1620;-60
2021/08/10 11:05:39;;;;;;;;;;;;;;;23.77;61.37;100878.34;5057406;28;934;-60
2021/08/10 11:08:27;;;;;;;;;;;;;;;23.84;61.17;100867.75;5054390;28;1341;-61
2021/08/10 11:10:54;;;;;;;;;;;;;;;23.91;61.59;100878.72;5050467;28;1681;-62
2021/08/10 11:13:44;;;;;;;;;;;;;;;23.86;61.30;100854.06;5056465;28;1488;-61
2021/08/10 11:16:11;;;;;;;;;;;;;;;23.89;61.63;100859.13;5045961;28;2037;-61
2021/08/10 11:18:37;;;;;;;;;;;;;;;23.86;61.80;100863.00;5055662;28;1310;-61
2021/08/10 11:21:23;;;;;;;;;;;;;;;23.88;62.06;100849.34;5056630;28;1519;-61
2021/08/10 11:23:51;;;;;;;;;;;;;;;23.91;62.01;100854.41;5054517;28;1393;-60
2021/08/10 11:26:35;;;;;;;;;;;;;;;23.91;62.13;100862.50;5055554;28;1423;-60
2021/08/10 11:29:02;;;;;;;;;;;;;;;23.88;62.90;100860.16;5055911;28;1404;-60
2021/08/10 11:31:33;;;;;;;;;;;;;;;23.88;62.51;100844.78;5055221;28;1507;-61
2021/08/10 11:34:00;;;;;;;;;;;;;;;23.90;62.26;100860.84;5052055;28;1579;-61
2021/08/10 11:36:26;;;;;;;;;;;;;;;23.96;62.85;100870.97;5054056;28;1961;-61
2021/08/10 11:39:10;;;;;;;;;;;;;;;23.84;63.29;100859.63;5055910;28;1389;-60
2021/08/10 11:41:37;;;;;;;;;;;;;;;23.97;62.92;100865.41;5053596;28;1563;-61
2021/08/10 11:44:05;;;;;;;;;;;;;;;23.93;62.53;100860.50;5056054;28;1385;-61
2021/08/10 11:46:32;;;;;;;;;;;;;;;23.99;62.61;100843.59;5055281;28;1730;-61
2021/08/10 11:49:00;;;;;;;;;;;;;;;24.01;62.34;100849.69;5055511;28;1727;-61
2021/08/10 11:51:27;;;;;;;;;;;;;;;23.95;63.14;100844.97;5038590;28;1283;-60
2021/08/10 11:53:55;;;;;;;;;;;;;;;23.95;63.05;100835.00;5055355;28;1396;-60
2021/08/10 11:56:24;;;;;;;;;;;;;;;23.95;62.85;100842.25;5055263;28;1977;-61
2021/08/10 11:58:51;;;;;;;;;;;;;;;24.03;62.94;100831.47;5054990;28;1715;-61
2021/08/10 12:01:17;;;;;;;;;;;;;;;24.04;62.97;100841.28;5054356;28;1722;-61
2021/08/10 12:03:44;;;;;;;;;;;;;;;24.01;63.20;100841.59;5053716;28;1319;-62
2021/08/10 12:06:11;;;;;;;;;;;;;;;23.93;63.57;100836.19;5051509;28;1374;-60
2021/08/10 12:08:37;;;;;;;;;;;;;;;23.97;63.55;100818.63;5052213;28;1321;-61
2021/08/10 12:11:04;;;;;;;;;;;;;;;23.98;63.42;100825.72;5052092;28;1755;-60
2021/08/10 12:13:32;;;;;;;;;;;;;;;23.99;63.06;100827.41;5050392;28;1715;-60
2021/08/10 12:15:59;;;;;;;;;;;;;;;24.02;63.25;100837.88;5054843;28;1913;-61
2021/08/10 12:18:26;;;;;;;;;;;;;;;23.90;63.35;100806.81;5054832;28;1409;-60
2021/08/10 12:20:57;;;;;;;;;;;;;;;23.90;63.41;100806.81;5055015;28;1349;-61
2021/08/10 12:23:24;;;;;;;;;;;;;;;23.86;63.66;100813.56;5048644;28;1468;-61
2021/08/10 12:25:51;;;;;;;;;;;;;;;23.94;62.98;100802.78;5054557;28;1335;-61
2021/08/10 12:28:17;;;;;;;;;;;;;;;23.88;62.95;100806.13;5054045;28;1409;-61
2021/08/10 12:30:45;;;;;;;;;;;;;;;23.85;63.05;100803.75;5054612;28;1391;-61
2021/08/10 12:33:13;;;;;;;;;;;;;;;23.88;63.23;100793.47;5054491;28;1510;-61
2021/08/10 12:35:40;;;;;;;;;;;;;;;23.81;63.36;100793.31;5053540;28;1909;-60
2021/08/10 12:38:07;;;;;;;;;;;;;;;23.81;63.61;100798.72;5054351;28;1262;-61
2021/08/10 12:40:34;;;;;;;;;;;;;;;23.85;62.90;100798.38;5051440;28;1394;-60
2021/08/10 12:43:01;;;;;;;;;;;;;;;23.86;62.64;100778.47;5054563;28;1381;-60
2021/08/10 12:45:32;;;;;;;;;;;;;;;23.82;63.34;100781.47;5054000;28;1575;-60
2021/08/10 12:48:00;;;;;;;;;;;;;;;23.80;63.51;100775.41;5054279;28;1378;-61
2021/08/10 12:50:27;;;;;;;;;;;;;;;23.79;63.69;100779.09;5054417;28;1272;-61
2021/08/10 12:52:54;;;;;;;;;;;;;;;23.78;63.62;100777.44;5054418;28;1727;-61